Shipshewana, Indiana
Current Conditions -  °F | °C
As of 8:35 AM on Friday 28 Nov 2014 (Local Time) from KIRS Reporting Station
Overcast Overcast  
Wind Chill:   Ceiling: 10000
Heat Index: 19°   Visibility: 10mi
Dew Point: 16°   Wind: 8mph
Humidity: 86%   Direction: 170°S
Pressure: 30.28"   Gusts: NA
Location:  41.67°N, 85.58°W
Report Text: KIRS 281335Z AUTO 17007KT 10SM OVC100 M07/M09 A3028 RMK AO2
Loading
Personal Weather Stations






























Interactive Weather Map New forecast layout! Learn more

10-Day Weather Forecast

Advertisements
Track Severe Weather on mobile